Megalon — 3ETX2 — position and weather

sailwx.info

Track history (hours):
 
Tides and Currents Weather Stations Pressure Air Temp Water Temp Dewpoint Dewpoint Depression Visibility Wind Speed Wind Dir Waves Ship Positions

Megalon

Last reported at 2017-Jan-04 11:30 UTC. Time now 2017-Jan-19 21:31 UTC.
Position N 38°41' E 024°18'.
Warning: this ship's position is 15 days out of date.

Length 140 m; draft 8.1 m.

Type: Cargo ship. MMSI: 372427000.

Date/timePositionNaut miles runAvg speedWind from/ knotsBaromVisibWave heightAir tempDewpointWater temp
2017-Jan-04 11:30N 38°41' E 024°18'1312.1
2017-Jan-04 10:24N 38°30' E 024°26'1212.3
2017-Jan-04 09:24N 38°19' E 024°34'1012.4
2017-Jan-04 08:33N 38°10' E 024°40'2412.0
2017-Jan-04 06:33N 37°46' E 024°32'1312.7
2017-Jan-04 05:33N 37°35' E 024°26'1212.4
2017-Jan-04 04:33N 37°24' E 024°17'1212.5
2017-Jan-04 03:33N 37°14' E 024°07'1212.5
2017-Jan-04 02:33N 37°05' E 023°58'1212.2
2017-Jan-04 01:33N 36°55' E 023°49'1312.3
2017-Jan-04 00:30N 36°44' E 023°39'3711.6
2017-Jan-03 21:20N 36°24' E 023°01'40712.8
2017-Jan-02 13:33N 36°39' E 014°35'1312.7
2017-Jan-02 12:33N 36°44' E 014°20'1312.6
2017-Jan-02 11:33N 36°44' E 014°04'1312.7
2017-Jan-02 10:33N 36°45' E 013°48'  
2016-Dec-30 08:15N 36°08' W 005°22'0 0.0
2016-Dec-30 06:30N 36°08' W 005°22'0 0.1
2016-Dec-30 05:24N 36°08' W 005°22'0 0.1
2016-Dec-30 04:30N 36°08' W 005°22'8 8.1
2016-Dec-30 03:33N 36°00' W 005°21'1211.9
2016-Dec-30 02:33N 35°56' W 005°35'23110.0
2016-Dec-29 03:29N 37°45' W 009°50'1412.7
2016-Dec-29 02:24N 37°59' W 009°54'1512.7
2016-Dec-29 01:11N 38°14' W 009°58'812.7
2016-Dec-29 00:31N 38°22' W 010°01'1412.7
2016-Dec-28 23:24N 38°36' W 010°05'1112.7
2016-Dec-28 22:31N 38°47' W 010°07'  
2016-Dec-26 07:33N 49°47' W 003°24'1210.8
2016-Dec-26 06:25N 49°54' W 003°08'910.2
2016-Dec-26 05:33N 49°58' W 002°56'10 9.7
2016-Dec-26 04:33N 50°02' W 002°42'9311.5
2016-Dec-25 20:26N 50°27' W 000°22'910.1
2016-Dec-25 19:31N 50°29' W 000°08'9 9.6
2016-Dec-25 18:33N 50°31' E 000°06'9 9.4
2016-Dec-25 17:33N 50°34' E 000°20'1410.1
2016-Dec-25 16:09N 50°38' E 000°41'911.2
2016-Dec-25 15:23N 50°44' E 000°52'2411.2
2016-Dec-25 13:15N 51°00' E 001°19'710.1
2016-Dec-25 12:33N 51°05' E 001°28'9 9.3
2016-Dec-25 11:33N 51°11' E 001°39'  
Track history (hours):
 
Tides and Currents Weather Stations Pressure Air Temp Water Temp Dewpoint Dewpoint Depression Visibility Wind Speed Wind Dir Waves Ship Positions

Megalon

Last reported at 2017-Jan-04 11:30 UTC. Time now 2017-Jan-19 21:31 UTC.
Position N 38°41' E 024°18'.
Warning: this ship's position is 15 days out of date.

Length 140 m; draft 8.1 m.

Type: Cargo ship. MMSI: 372427000.

Date/timePositionNaut miles runAvg speedWind from/ knotsBaromVisibWave heightAir tempDewpointWater temp
2017-Jan-04 11:30N 38°41' E 024°18'1312.1
2017-Jan-04 10:24N 38°30' E 024°26'1212.3
2017-Jan-04 09:24N 38°19' E 024°34'1012.4
2017-Jan-04 08:33N 38°10' E 024°40'2412.0
2017-Jan-04 06:33N 37°46' E 024°32'1312.7
2017-Jan-04 05:33N 37°35' E 024°26'1212.4
2017-Jan-04 04:33N 37°24' E 024°17'1212.5
2017-Jan-04 03:33N 37°14' E 024°07'1212.5
2017-Jan-04 02:33N 37°05' E 023°58'1212.2
2017-Jan-04 01:33N 36°55' E 023°49'1312.3
2017-Jan-04 00:30N 36°44' E 023°39'3711.6
2017-Jan-03 21:20N 36°24' E 023°01'40712.8
2017-Jan-02 13:33N 36°39' E 014°35'1312.7
2017-Jan-02 12:33N 36°44' E 014°20'1312.6
2017-Jan-02 11:33N 36°44' E 014°04'1312.7
2017-Jan-02 10:33N 36°45' E 013°48'  
2016-Dec-30 08:15N 36°08' W 005°22'0 0.0
2016-Dec-30 06:30N 36°08' W 005°22'0 0.1
2016-Dec-30 05:24N 36°08' W 005°22'0 0.1
2016-Dec-30 04:30N 36°08' W 005°22'8 8.1
2016-Dec-30 03:33N 36°00' W 005°21'1211.9
2016-Dec-30 02:33N 35°56' W 005°35'23110.0
2016-Dec-29 03:29N 37°45' W 009°50'1412.7
2016-Dec-29 02:24N 37°59' W 009°54'1512.7
2016-Dec-29 01:11N 38°14' W 009°58'812.7
2016-Dec-29 00:31N 38°22' W 010°01'1412.7
2016-Dec-28 23:24N 38°36' W 010°05'1112.7
2016-Dec-28 22:31N 38°47' W 010°07'  
2016-Dec-26 07:33N 49°47' W 003°24'1210.8
2016-Dec-26 06:25N 49°54' W 003°08'910.2
2016-Dec-26 05:33N 49°58' W 002°56'10 9.7
2016-Dec-26 04:33N 50°02' W 002°42'9311.5
2016-Dec-25 20:26N 50°27' W 000°22'910.1
2016-Dec-25 19:31N 50°29' W 000°08'9 9.6
2016-Dec-25 18:33N 50°31' E 000°06'9 9.4
2016-Dec-25 17:33N 50°34' E 000°20'1410.1
2016-Dec-25 16:09N 50°38' E 000°41'911.2
2016-Dec-25 15:23N 50°44' E 000°52'2411.2
2016-Dec-25 13:15N 51°00' E 001°19'710.1
2016-Dec-25 12:33N 51°05' E 001°28'9 9.3
2016-Dec-25 11:33N 51°11' E 001°39'  

Dump ship's entire track history